Time;durP1;ratioP1;P1;durP2;ratioP2;P2;SDS_P1;SDS_P2;PMS_P1;PMS_P2;Temp;Humidity;BMP_temperature;BMP_pressure;BME280_temperature;BME280_humidity;BME280_pressure;Samples;Min_cycle;Max_cycle;Signal;HPM_P1;HPM_P2
2021/08/11 00:00:23;;;;;;;8.65;6.47;;;;;;;;;;5031766;28;38996;-77
2021/08/11 00:02:50;;;;;;;10.77;8.35;;;;;;;;;;5031372;28;47500;-78
2021/08/11 00:05:16;;;;;;;12.57;8.95;;;;;;;;;;5029245;28;39084;-78
2021/08/11 00:07:42;;;;;;;14.00;8.45;;;;;;;;;;5032238;28;36221;-77
2021/08/11 00:10:09;;;;;;;11.88;8.02;;;;;;;;;;5055488;28;39126;-76
2021/08/11 00:12:36;;;;;;;12.20;7.35;;;;;;;;;;5048736;28;38759;-77
2021/08/11 00:15:02;;;;;;;9.38;6.55;;;;;;;;;;5050081;28;39417;-77
2021/08/11 00:17:29;;;;;;;13.15;7.90;;;;;;;;;;5047893;28;38168;-77
2021/08/11 00:19:55;;;;;;;13.48;7.93;;;;;;;;;;5047042;28;40368;-77
2021/08/11 00:22:21;;;;;;;11.77;8.70;;;;;;;;;;5047594;28;40075;-77
2021/08/11 00:24:48;;;;;;;10.90;8.80;;;;;;;;;;5049910;28;39584;-77
2021/08/11 00:27:14;;;;;;;15.30;8.18;;;;;;;;;;5047429;28;37130;-77
2021/08/11 00:29:40;;;;;;;12.75;9.10;;;;;;;;;;5048830;28;39707;-77
2021/08/11 00:32:07;;;;;;;12.77;8.98;;;;;;;;;;5029940;28;40349;-77
2021/08/11 00:34:33;;;;;;;12.55;8.88;;;;;;;;;;5047746;28;38573;-77
2021/08/11 00:37:00;;;;;;;12.88;8.93;;;;;;;;;;5048724;28;36746;-77
2021/08/11 00:39:26;;;;;;;11.88;8.18;;;;;;;;;;5029286;28;39413;-78
2021/08/11 00:41:52;;;;;;;13.18;9.60;;;;;;;;;;5031105;28;39386;-77
2021/08/11 00:44:19;;;;;;;13.43;9.70;;;;;;;;;;5029434;28;40368;-77
2021/08/11 00:46:45;;;;;;;17.17;9.90;;;;;;;;;;5029366;28;37373;-77
2021/08/11 00:49:14;;;;;;;12.73;8.75;;;;;;;;;;5048658;28;40052;-77
2021/08/11 00:51:41;;;;;;;18.75;10.98;;;;;;;;;;5047746;28;38682;-77
2021/08/11 00:54:08;;;;;;;19.88;12.25;;;;;;;;;;5047534;28;38641;-77
2021/08/11 00:56:35;;;;;;;18.77;10.60;;;;;;;;;;5046907;28;37995;-77
2021/08/11 00:59:03;;;;;;;16.38;11.43;;;;;;;;;;5030898;28;39221;-77
2021/08/11 01:01:32;;;;;;;20.27;12.98;;;;;;;;;;5048554;28;47698;-77
2021/08/11 01:03:59;;;;;;;16.63;11.95;;;;;;;;;;5035423;28;37946;-77
2021/08/11 01:06:27;;;;;;;17.45;12.45;;;;;;;;;;5050742;28;36845;-77
2021/08/11 01:08:55;;;;;;;22.80;12.57;;;;;;;;;;5033856;28;39855;-77
2021/08/11 01:11:24;;;;;;;19.23;10.85;;;;;;;;;;5032681;28;39524;-76
2021/08/11 01:13:51;;;;;;;20.65;13.07;;;;;;;;;;5053199;28;39943;-77
2021/08/11 01:16:18;;;;;;;25.08;14.63;;;;;;;;;;5032433;28;38901;-77
2021/08/11 01:18:44;;;;;;;24.35;15.13;;;;;;;;;;5034598;28;37700;-78
2021/08/11 01:21:21;;;;;;;23.92;15.07;;;;;;;;;;5048805;28;39225;-76
2021/08/11 01:24:19;;;;;;;27.15;15.90;;;;;;;;;;5049580;28;37321;-78
2021/08/11 01:27:05;;;;;;;24.85;16.42;;;;;;;;;;5007963;28;48987;-77
2021/08/11 01:29:50;;;;;;;20.85;15.50;;;;;;;;;;5015296;28;46812;-77
2021/08/11 01:32:29;;;;;;;31.98;18.40;;;;;;;;;;5048242;28;39322;-77
2021/08/11 01:34:56;;;;;;;25.45;18.27;;;;;;;;;;5066926;28;39070;-77
2021/08/11 01:37:28;;;;;;;28.90;18.38;;;;;;;;;;5070235;28;38029;-77
2021/08/11 01:39:58;;;;;;;29.60;18.52;;;;;;;;;;5052398;28;39631;-77
2021/08/11 01:42:26;;;;;;;27.23;19.00;;;;;;;;;;5031606;28;39400;-78
2021/08/11 01:45:11;;;;;;;31.52;19.05;;;;;;;;;;5050905;28;38485;-77
2021/08/11 01:47:42;;;;;;;29.67;18.45;;;;;;;;;;5026270;28;47014;-77
2021/08/11 01:50:12;;;;;;;33.80;19.40;;;;;;;;;;5049884;28;39804;-77
2021/08/11 01:52:42;;;;;;;28.42;19.55;;;;;;;;;;5033050;28;38154;-77
2021/08/11 01:55:09;;;;;;;30.95;20.48;;;;;;;;;;5032041;28;39420;-76
2021/08/11 01:57:40;;;;;;;35.88;19.42;;;;;;;;;;5031476;28;38483;-77
2021/08/11 02:00:07;;;;;;;29.85;19.65;;;;;;;;;;5032226;28;40740;-76
2021/08/11 02:02:36;;;;;;;35.75;21.52;;;;;;;;;;5031961;28;47215;-77
2021/08/11 02:05:03;;;;;;;46.55;25.90;;;;;;;;;;5050866;28;38571;-78
2021/08/11 02:07:29;;;;;;;40.63;22.58;;;;;;;;;;5050547;28;37362;-77
2021/08/11 02:09:56;;;;;;;36.63;21.98;;;;;;;;;;5050680;28;38608;-77
2021/08/11 02:12:22;;;;;;;41.78;22.73;;;;;;;;;;5030216;28;39536;-77
2021/08/11 02:14:49;;;;;;;39.08;23.33;;;;;;;;;;5051170;28;39642;-77
2021/08/11 02:17:15;;;;;;;36.10;21.67;;;;;;;;;;5049697;28;37796;-77
2021/08/11 02:19:42;;;;;;;29.98;20.25;;;;;;;;;;5050206;28;39281;-77
2021/08/11 02:22:08;;;;;;;31.33;20.50;;;;;;;;;;5050421;28;39050;-77
2021/08/11 02:24:34;;;;;;;33.67;20.15;;;;;;;;;;5052753;28;38657;-78
2021/08/11 02:27:03;;;;;;;42.30;23.25;;;;;;;;;;5050835;28;36774;-77
2021/08/11 02:29:42;;;;;;;34.08;21.20;;;;;;;;;;5050593;28;48392;-77
2021/08/11 02:32:11;;;;;;;35.13;21.75;;;;;;;;;;5028529;28;39141;-77
2021/08/11 02:34:56;;;;;;;37.00;21.95;;;;;;;;;;5029619;28;39154;-78
2021/08/11 02:37:28;;;;;;;37.92;21.52;;;;;;;;;;5027057;28;36263;-77
2021/08/11 02:40:00;;;;;;;32.97;21.20;;;;;;;;;;5028110;28;40805;-77
2021/08/11 02:42:28;;;;;;;37.10;21.10;;;;;;;;;;5042947;28;38525;-77
2021/08/11 02:44:56;;;;;;;36.78;22.10;;;;;;;;;;5032086;28;39980;-78
2021/08/11 02:47:23;;;;;;;32.88;20.70;;;;;;;;;;5028905;28;37526;-77
2021/08/11 02:49:50;;;;;;;30.80;20.33;;;;;;;;;;5050043;28;39068;-77
2021/08/11 02:52:17;;;;;;;40.03;23.83;;;;;;;;;;5030521;28;37793;-78
2021/08/11 02:54:45;;;;;;;32.15;22.75;;;;;;;;;;5031797;28;39262;-77
2021/08/11 02:57:11;;;;;;;36.75;23.17;;;;;;;;;;5048930;28;37590;-77
2021/08/11 02:59:39;;;;;;;38.40;25.08;;;;;;;;;;5046845;28;39268;-78
2021/08/11 03:02:06;;;;;;;38.50;23.25;;;;;;;;;;5069083;28;39147;-77
2021/08/11 03:04:32;;;;;;;35.08;21.63;;;;;;;;;;5051741;28;39825;-77
2021/08/11 03:06:59;;;;;;;36.33;21.98;;;;;;;;;;5064102;28;37238;-78
2021/08/11 03:09:25;;;;;;;31.77;20.63;;;;;;;;;;5030658;28;39808;-78
2021/08/11 03:11:52;;;;;;;41.80;23.55;;;;;;;;;;5030734;28;39327;-77
2021/08/11 03:14:19;;;;;;;34.58;21.83;;;;;;;;;;5048281;28;38616;-78
2021/08/11 03:16:45;;;;;;;41.88;25.00;;;;;;;;;;5047435;28;37197;-77
2021/08/11 03:19:11;;;;;;;35.53;21.40;;;;;;;;;;5049482;28;38665;-77
2021/08/11 03:21:39;;;;;;;36.38;21.65;;;;;;;;;;5030909;28;38847;-77
2021/08/11 03:24:06;;;;;;;30.27;19.45;;;;;;;;;;5011489;28;39087;-77
2021/08/11 03:26:32;;;;;;;41.03;24.15;;;;;;;;;;5025812;28;37109;-77
2021/08/11 03:29:00;;;;;;;39.05;22.40;;;;;;;;;;5011354;28;39464;-77
2021/08/11 03:31:30;;;;;;;37.10;21.40;;;;;;;;;;5010121;28;40559;-78
2021/08/11 03:33:57;;;;;;;30.90;19.77;;;;;;;;;;5031106;28;39237;-78
2021/08/11 03:36:24;;;;;;;38.95;23.50;;;;;;;;;;5047618;28;36992;-78
2021/08/11 03:38:50;;;;;;;45.00;25.30;;;;;;;;;;5050732;28;40204;-78
2021/08/11 03:41:17;;;;;;;40.17;23.40;;;;;;;;;;5046434;28;39367;-77
2021/08/11 03:43:43;;;;;;;39.35;24.33;;;;;;;;;;5047292;28;39061;-78
2021/08/11 03:46:10;;;;;;;30.55;19.77;;;;;;;;;;5048554;28;36822;-77
2021/08/11 03:48:36;;;;;;;38.15;22.50;;;;;;;;;;5048619;28;37596;-78
2021/08/11 03:51:03;;;;;;;35.20;21.77;;;;;;;;;;5049464;28;38554;-76
2021/08/11 03:53:29;;;;;;;37.50;21.40;;;;;;;;;;5048221;28;38703;-78
2021/08/11 03:55:55;;;;;;;30.65;19.45;;;;;;;;;;5049321;28;38171;-77
2021/08/11 03:58:22;;;;;;;28.60;20.27;;;;;;;;;;5030114;28;40497;-78
2021/08/11 04:00:48;;;;;;;29.23;20.00;;;;;;;;;;5048661;28;39653;-77
2021/08/11 04:03:14;;;;;;;35.75;20.95;;;;;;;;;;5048655;28;39046;-78
2021/08/11 04:05:41;;;;;;;26.20;19.05;;;;;;;;;;5029463;28;36051;-78
2021/08/11 04:08:07;;;;;;;33.80;21.02;;;;;;;;;;5055551;28;38694;-78
2021/08/11 04:10:34;;;;;;;31.90;21.02;;;;;;;;;;5046654;28;38859;-78
2021/08/11 04:13:00;;;;;;;29.77;18.42;;;;;;;;;;5049351;28;38148;-78
2021/08/11 04:15:26;;;;;;;25.98;19.08;;;;;;;;;;5044690;28;37326;-78
2021/08/11 04:17:53;;;;;;;31.02;20.63;;;;;;;;;;5038754;28;38764;-78
2021/08/11 04:20:20;;;;;;;30.10;20.00;;;;;;;;;;5025354;28;39379;-78
2021/08/11 04:22:46;;;;;;;28.05;19.17;;;;;;;;;;5029720;28;39742;-78
2021/08/11 04:25:13;;;;;;;27.88;19.15;;;;;;;;;;5066735;28;37052;-78
2021/08/11 04:27:39;;;;;;;39.05;21.73;;;;;;;;;;5050588;28;40517;-78
2021/08/11 04:30:06;;;;;;;26.33;18.00;;;;;;;;;;5068037;28;38938;-77
2021/08/11 04:32:35;;;;;;;34.15;20.30;;;;;;;;;;5049708;28;47276;-77
2021/08/11 04:35:01;;;;;;;28.20;19.98;;;;;;;;;;5050026;28;38833;-78
2021/08/11 04:37:27;;;;;;;30.65;19.25;;;;;;;;;;5067861;28;38858;-78
2021/08/11 04:39:54;;;;;;;29.60;19.73;;;;;;;;;;5048200;28;39077;-78
2021/08/11 04:42:21;;;;;;;26.40;18.08;;;;;;;;;;5049622;28;39162;-77
2021/08/11 04:44:47;;;;;;;25.45;18.05;;;;;;;;;;5069104;28;37314;-78
2021/08/11 04:47:14;;;;;;;29.48;19.90;;;;;;;;;;5067357;28;40150;-78
2021/08/11 04:49:40;;;;;;;25.40;17.85;;;;;;;;;;5050652;28;37558;-78
2021/08/11 04:52:07;;;;;;;25.33;17.17;;;;;;;;;;5050159;28;37638;-77
2021/08/11 04:54:33;;;;;;;37.78;23.23;;;;;;;;;;5066960;28;38260;-78
2021/08/11 04:57:00;;;;;;;24.90;17.98;;;;;;;;;;5047873;28;40882;-78
2021/08/11 04:59:26;;;;;;;25.52;19.02;;;;;;;;;;5046874;28;39452;-78
2021/08/11 05:01:52;;;;;;;32.60;19.98;;;;;;;;;;5046565;28;39348;-78
2021/08/11 05:04:19;;;;;;;30.88;19.52;;;;;;;;;;5028995;28;38446;-78
2021/08/11 05:06:45;;;;;;;32.22;20.67;;;;;;;;;;5027991;28;39387;-78
2021/08/11 05:09:11;;;;;;;27.77;18.85;;;;;;;;;;5047305;28;38902;-77
2021/08/11 05:11:38;;;;;;;34.40;19.35;;;;;;;;;;5028962;28;40523;-78
2021/08/11 05:14:04;;;;;;;29.17;20.67;;;;;;;;;;5030928;28;37447;-77
2021/08/11 05:16:30;;;;;;;28.48;19.48;;;;;;;;;;5065709;28;39098;-78
2021/08/11 05:18:57;;;;;;;24.73;17.85;;;;;;;;;;5049792;28;38735;-78
2021/08/11 05:21:24;;;;;;;28.73;19.40;;;;;;;;;;5045858;28;38511;-78
2021/08/11 05:23:50;;;;;;;28.58;19.70;;;;;;;;;;5048753;28;37767;-78
2021/08/11 05:26:17;;;;;;;22.98;18.45;;;;;;;;;;5045443;28;39908;-78
2021/08/11 05:28:43;;;;;;;33.22;21.10;;;;;;;;;;5046761;28;39830;-78
2021/08/11 05:31:10;;;;;;;39.53;22.30;;;;;;;;;;5044814;28;38808;-78
2021/08/11 05:33:36;;;;;;;33.70;21.38;;;;;;;;;;5047325;28;38143;-78
2021/08/11 05:36:03;;;;;;;31.17;21.88;;;;;;;;;;5026976;28;39870;-77
2021/08/11 05:38:30;;;;;;;26.10;19.65;;;;;;;;;;5028673;28;37915;-78
2021/08/11 05:40:56;;;;;;;28.05;19.33;;;;;;;;;;5028660;28;38515;-78
2021/08/11 05:43:23;;;;;;;24.92;18.17;;;;;;;;;;5029041;28;38780;-78
2021/08/11 05:45:49;;;;;;;22.35;16.23;;;;;;;;;;5029160;28;40862;-78
2021/08/11 05:48:15;;;;;;;26.40;17.75;;;;;;;;;;5050267;28;39995;-78
2021/08/11 05:50:42;;;;;;;27.08;17.67;;;;;;;;;;5031765;28;37674;-77
2021/08/11 05:53:08;;;;;;;24.02;18.38;;;;;;;;;;5033075;28;37521;-78
2021/08/11 05:55:34;;;;;;;25.80;17.77;;;;;;;;;;5032349;28;39324;-78
2021/08/11 05:58:01;;;;;;;23.40;17.33;;;;;;;;;;5049851;28;39071;-78
2021/08/11 06:00:27;;;;;;;30.27;19.00;;;;;;;;;;5027475;28;47274;-78
2021/08/11 06:02:56;;;;;;;30.67;19.73;;;;;;;;;;5050246;28;36891;-78
2021/08/11 06:05:23;;;;;;;22.50;16.10;;;;;;;;;;5034865;28;39324;-78
2021/08/11 06:07:49;;;;;;;22.13;16.55;;;;;;;;;;5035464;28;39441;-78
2021/08/11 06:10:16;;;;;;;28.63;15.90;;;;;;;;;;5030795;28;39533;-78
2021/08/11 06:12:42;;;;;;;27.77;17.95;;;;;;;;;;5050054;28;37904;-78
2021/08/11 06:15:09;;;;;;;22.65;16.30;;;;;;;;;;5030857;28;39893;-77
2021/08/11 06:17:45;;;;;;;26.73;15.95;;;;;;;;;;5027582;28;39248;-78
2021/08/11 06:20:12;;;;;;;27.48;17.67;;;;;;;;;;5027059;28;38906;-77
2021/08/11 06:22:39;;;;;;;27.23;17.65;;;;;;;;;;5037592;28;37010;-78
2021/08/11 06:25:06;;;;;;;27.65;16.83;;;;;;;;;;5030027;28;37861;-77
2021/08/11 06:27:32;;;;;;;27.00;16.65;;;;;;;;;;5031483;28;38819;-78
2021/08/11 06:29:59;;;;;;;32.22;17.33;;;;;;;;;;5031522;28;39901;-78
2021/08/11 06:32:25;;;;;;;23.02;15.93;;;;;;;;;;5028897;28;37884;-76
2021/08/11 06:34:52;;;;;;;20.65;15.95;;;;;;;;;;5031525;28;37484;-78
2021/08/11 06:37:18;;;;;;;24.92;17.55;;;;;;;;;;5030412;28;39562;-76
2021/08/11 06:39:45;;;;;;;23.20;17.25;;;;;;;;;;5031368;28;40497;-76
2021/08/11 06:42:11;;;;;;;27.20;16.13;;;;;;;;;;5048535;28;37042;-76
2021/08/11 06:44:38;;;;;;;21.65;15.32;;;;;;;;;;5048664;28;38291;-76
2021/08/11 06:47:04;;;;;;;20.67;15.55;;;;;;;;;;5025332;28;39258;-75
2021/08/11 06:49:30;;;;;;;20.48;15.55;;;;;;;;;;5026206;28;39666;-78
2021/08/11 06:51:57;;;;;;;23.25;15.15;;;;;;;;;;5029407;28;37960;-76
2021/08/11 06:54:23;;;;;;;18.98;13.88;;;;;;;;;;5026661;28;39686;-76
2021/08/11 06:56:49;;;;;;;18.75;13.68;;;;;;;;;;5042953;28;38762;-76
2021/08/11 06:59:16;;;;;;;21.88;13.52;;;;;;;;;;5053774;28;38814;-78
2021/08/11 07:01:42;;;;;;;19.80;14.40;;;;;;;;;;5055234;28;36958;-77
2021/08/11 07:04:09;;;;;;;23.23;14.50;;;;;;;;;;5053584;28;37602;-77
2021/08/11 07:06:35;;;;;;;20.65;14.43;;;;;;;;;;5036399;28;37994;-76
2021/08/11 07:09:01;;;;;;;19.02;14.15;;;;;;;;;;5033301;28;38420;-75
2021/08/11 07:11:28;;;;;;;27.35;15.07;;;;;;;;;;5032012;28;36210;-76
2021/08/11 07:13:54;;;;;;;22.65;13.80;;;;;;;;;;5045238;28;39833;-77
2021/08/11 07:16:20;;;;;;;18.70;14.38;;;;;;;;;;5050447;28;39188;-77
2021/08/11 07:18:47;;;;;;;22.30;12.80;;;;;;;;;;5037052;28;39570;-76
2021/08/11 07:21:13;;;;;;;18.52;12.95;;;;;;;;;;5048355;28;36812;-77
2021/08/11 07:23:40;;;;;;;17.15;11.70;;;;;;;;;;5033725;28;39102;-77
2021/08/11 07:26:08;;;;;;;19.10;13.70;;;;;;;;;;5048144;28;39223;-77
2021/08/11 07:28:34;;;;;;;19.58;12.90;;;;;;;;;;5048117;28;37100;-78
2021/08/11 07:31:01;;;;;;;18.02;11.38;;;;;;;;;;5042284;28;37015;-77
2021/08/11 07:33:27;;;;;;;18.75;12.07;;;;;;;;;;5050034;28;39163;-78
2021/08/11 07:35:53;;;;;;;19.35;12.63;;;;;;;;;;5049897;28;39249;-78
2021/08/11 07:38:20;;;;;;;19.38;12.95;;;;;;;;;;5049669;28;37400;-78
2021/08/11 07:40:46;;;;;;;19.48;13.68;;;;;;;;;;5048875;28;37266;-78
2021/08/11 07:43:13;;;;;;;20.38;13.15;;;;;;;;;;5050285;28;38293;-78
2021/08/11 07:45:39;;;;;;;21.10;13.40;;;;;;;;;;5047709;28;39507;-78
2021/08/11 07:48:06;;;;;;;23.58;13.63;;;;;;;;;;4997640;28;1187828;-78
2021/08/11 07:50:33;;;;;;;18.83;12.73;;;;;;;;;;5028377;28;36907;-78
2021/08/11 07:53:00;;;;;;;20.73;12.27;;;;;;;;;;5030243;28;39103;-78
2021/08/11 07:55:26;;;;;;;16.77;11.93;;;;;;;;;;5028234;28;39032;-78
2021/08/11 07:57:53;;;;;;;19.30;12.05;;;;;;;;;;5030848;28;38746;-78
2021/08/11 08:00:22;;;;;;;18.17;13.07;;;;;;;;;;5029282;28;36145;-77
2021/08/11 08:02:48;;;;;;;17.60;12.20;;;;;;;;;;5032173;28;40263;-77
2021/08/11 08:05:15;;;;;;;21.17;11.40;;;;;;;;;;5037634;28;39013;-78
2021/08/11 08:07:42;;;;;;;22.00;12.00;;;;;;;;;;5046914;28;37612;-78
2021/08/11 08:10:09;;;;;;;17.27;11.75;;;;;;;;;;5030189;28;37254;-77
2021/08/11 08:12:36;;;;;;;14.18;10.48;;;;;;;;;;5045706;28;40566;-77
2021/08/11 08:15:03;;;;;;;19.05;11.25;;;;;;;;;;5032233;28;38906;-78
2021/08/11 08:17:29;;;;;;;18.65;12.00;;;;;;;;;;5030691;28;39955;-77
2021/08/11 08:19:55;;;;;;;13.63;10.00;;;;;;;;;;5032423;28;38319;-78
2021/08/11 08:22:22;;;;;;;13.93;9.55;;;;;;;;;;5030028;28;39264;-78
2021/08/11 08:24:54;;;;;;;14.32;9.63;;;;;;;;;;5046281;28;37800;-78
2021/08/11 08:27:20;;;;;;;;;;;;;;;;;;5033286;28;38640;-78
2021/08/11 08:29:47;;;;;;;15.98;9.18;;;;;;;;;;5031598;28;37161;-78
2021/08/11 08:32:13;;;;;;;16.40;8.63;;;;;;;;;;5029564;28;39080;-78
2021/08/11 08:34:39;;;;;;;12.30;7.70;;;;;;;;;;5045018;28;38866;-78
2021/08/11 08:37:06;;;;;;;11.43;7.30;;;;;;;;;;5031286;28;38704;-78
2021/08/11 08:39:32;;;;;;;12.40;7.45;;;;;;;;;;5047433;28;35337;-78
2021/08/11 08:41:59;;;;;;;10.85;7.10;;;;;;;;;;5045870;28;38931;-78
2021/08/11 08:44:25;;;;;;;9.68;6.97;;;;;;;;;;5030832;28;39107;-78
2021/08/11 08:46:52;;;;;;;13.02;7.60;;;;;;;;;;5038882;28;39418;-78
2021/08/11 08:49:19;;;;;;;10.88;6.93;;;;;;;;;;5047748;28;38515;-78
2021/08/11 08:51:49;;;;;;;10.38;6.45;;;;;;;;;;5049200;28;40298;-78
2021/08/11 08:54:23;;;;;;;9.85;6.60;;;;;;;;;;5051397;28;39232;-78
2021/08/11 08:56:49;;;;;;;10.15;6.00;;;;;;;;;;5047962;28;40366;-78
2021/08/11 08:59:16;;;;;;;9.52;6.43;;;;;;;;;;5047355;28;37683;-78
2021/08/11 09:01:43;;;;;;;8.38;5.72;;;;;;;;;;5048562;28;38630;-78
2021/08/11 09:04:09;;;;;;;8.32;5.43;;;;;;;;;;5051807;28;39934;-78
2021/08/11 09:06:36;;;;;;;9.43;5.85;;;;;;;;;;5032948;28;40285;-78
2021/08/11 09:09:04;;;;;;;7.60;4.78;;;;;;;;;;5035911;28;38372;-77
2021/08/11 09:11:31;;;;;;;11.10;5.78;;;;;;;;;;5049865;28;40034;-78
2021/08/11 09:14:16;;;;;;;7.80;5.55;;;;;;;;;;5052697;28;40100;-78
2021/08/11 09:16:46;;;;;;;12.23;6.22;;;;;;;;;;5049219;28;47470;-78
2021/08/11 09:19:14;;;;;;;10.05;6.47;;;;;;;;;;5031540;28;37211;-78
2021/08/11 09:21:41;;;;;;;9.82;5.82;;;;;;;;;;5030743;28;38927;-77
2021/08/11 09:24:17;;;;;;;9.63;5.45;;;;;;;;;;5032450;28;40104;-77
2021/08/11 09:26:44;;;;;;;9.73;5.28;;;;;;;;;;5033018;28;38839;-78
2021/08/11 09:29:10;;;;;;;10.38;6.88;;;;;;;;;;5035991;28;38517;-77
2021/08/11 09:31:36;;;;;;;10.73;6.18;;;;;;;;;;5049685;28;39628;-77
2021/08/11 09:34:08;;;;;;;12.32;5.97;;;;;;;;;;5033086;28;40389;-76
2021/08/11 09:36:54;;;;;;;10.75;5.90;;;;;;;;;;5051291;28;38813;-77
2021/08/11 09:39:20;;;;;;;7.75;5.05;;;;;;;;;;5034027;28;36791;-77
2021/08/11 09:41:57;;;;;;;6.95;5.78;;;;;;;;;;5033281;28;39362;-78
2021/08/11 09:44:23;;;;;;;8.48;5.78;;;;;;;;;;5033903;28;37735;-78
2021/08/11 09:46:50;;;;;;;12.65;7.18;;;;;;;;;;5059817;28;39001;-78
2021/08/11 09:49:17;;;;;;;12.75;7.38;;;;;;;;;;5052743;28;36594;-78
2021/08/11 09:51:55;;;;;;;7.60;5.65;;;;;;;;;;5053614;28;38034;-78
2021/08/11 09:54:22;;;;;;;10.77;5.90;;;;;;;;;;5071932;28;39284;-78
2021/08/11 09:56:48;;;;;;;9.40;5.22;;;;;;;;;;5071832;28;38224;-78
2021/08/11 09:59:15;;;;;;;12.05;5.90;;;;;;;;;;5044161;28;35734;-78
2021/08/11 10:01:41;;;;;;;12.13;6.25;;;;;;;;;;5032418;28;39985;-78
2021/08/11 10:04:09;;;;;;;9.10;6.47;;;;;;;;;;5050612;28;40055;-77
2021/08/11 10:06:35;;;;;;;11.43;7.20;;;;;;;;;;5047371;28;39009;-78
2021/08/11 10:09:10;;;;;;;11.25;7.43;;;;;;;;;;5035341;28;36319;-78
2021/08/11 10:11:37;;;;;;;9.98;7.53;;;;;;;;;;5034963;28;39469;-78
2021/08/11 10:14:05;;;;;;;8.77;6.40;;;;;;;;;;5053060;28;38821;-77
2021/08/11 10:16:34;;;;;;;12.85;6.25;;;;;;;;;;5049847;28;38876;-78
2021/08/11 10:19:03;;;;;;;7.93;4.95;;;;;;;;;;5034013;28;35860;-78
2021/08/11 10:21:32;;;;;;;12.00;7.57;;;;;;;;;;5049957;28;47263;-78
2021/08/11 10:23:59;;;;;;;10.73;7.45;;;;;;;;;;5034993;28;39102;-79
2021/08/11 10:26:27;;;;;;;14.45;8.25;;;;;;;;;;5050786;28;38622;-78
2021/08/11 10:28:54;;;;;;;8.32;6.07;;;;;;;;;;5052229;28;37193;-78
2021/08/11 10:31:20;;;;;;;9.20;5.80;;;;;;;;;;5049322;28;39223;-78
2021/08/11 10:33:48;;;;;;;9.95;7.13;;;;;;;;;;5050083;28;38620;-78
2021/08/11 10:36:15;;;;;;;12.13;8.90;;;;;;;;;;5049292;28;38333;-78
2021/08/11 10:38:45;;;;;;;14.07;8.02;;;;;;;;;;5032196;28;37564;-77
2021/08/11 10:41:12;;;;;;;12.18;8.15;;;;;;;;;;5049247;28;38619;-78
2021/08/11 10:43:39;;;;;;;9.20;6.07;;;;;;;;;;5050242;28;40094;-76
2021/08/11 10:46:07;;;;;;;10.45;5.80;;;;;;;;;;5048085;28;38977;-77
2021/08/11 10:48:33;;;;;;;10.68;5.43;;;;;;;;;;5031126;28;35962;-78
2021/08/11 10:51:00;;;;;;;9.68;5.50;;;;;;;;;;5047741;28;40778;-78
2021/08/11 10:53:26;;;;;;;8.73;5.07;;;;;;;;;;5047004;28;39226;-78
2021/08/11 10:55:53;;;;;;;17.10;5.82;;;;;;;;;;5029790;28;37405;-79
2021/08/11 10:58:35;;;;;;;10.25;5.63;;;;;;;;;;5046579;28;37940;-79
2021/08/11 11:01:01;;;;;;;6.28;4.57;;;;;;;;;;5045364;28;38626;-78
2021/08/11 11:03:46;;;;;;;13.40;5.90;;;;;;;;;;5046634;28;49581;-78
2021/08/11 11:06:13;;;;;;;13.18;6.82;;;;;;;;;;5046047;28;39321;-78
2021/08/11 11:08:39;;;;;;;9.05;6.18;;;;;;;;;;5030163;28;36082;-78
2021/08/11 11:11:24;;;;;;;14.38;6.38;;;;;;;;;;5031256;28;38086;-78
2021/08/11 11:13:50;;;;;;;10.50;6.47;;;;;;;;;;5049590;28;37594;-78
2021/08/11 11:16:17;;;;;;;6.65;5.43;;;;;;;;;;5048762;28;37348;-77
2021/08/11 11:19:03;;;;;;;11.15;6.00;;;;;;;;;;5032750;28;37298;-78
2021/08/11 11:21:29;;;;;;;10.80;6.40;;;;;;;;;;5043108;28;47074;-77
2021/08/11 11:23:55;;;;;;;10.05;5.95;;;;;;;;;;5047037;28;39694;-78
2021/08/11 11:26:32;;;;;;;12.77;7.05;;;;;;;;;;5046202;28;39350;-78
2021/08/11 11:28:59;;;;;;;8.27;5.32;;;;;;;;;;5047310;28;36797;-77
2021/08/11 11:31:29;;;;;;;7.60;5.13;;;;;;;;;;5025567;28;37825;-77
2021/08/11 11:34:15;;;;;;;7.13;4.55;;;;;;;;;;5045646;28;39715;-79
2021/08/11 11:36:42;;;;;;;10.32;5.15;;;;;;;;;;5027683;28;48547;-79
2021/08/11 11:39:09;;;;;;;8.40;5.18;;;;;;;;;;5029171;28;37520;-79
2021/08/11 11:41:36;;;;;;;9.63;6.30;;;;;;;;;;5045263;28;38790;-78
2021/08/11 11:44:23;;;;;;;9.82;5.85;;;;;;;;;;5030006;28;37860;-77
2021/08/11 11:46:49;;;;;;;7.53;5.05;;;;;;;;;;5028903;28;37862;-79
2021/08/11 11:49:17;;;;;;;8.57;6.32;;;;;;;;;;5045011;28;36140;-80
2021/08/11 11:51:44;;;;;;;10.05;5.43;;;;;;;;;;5046102;28;41337;-78
2021/08/11 11:54:11;;;;;;;8.32;5.80;;;;;;;;;;5045615;28;38226;-79
2021/08/11 11:56:38;;;;;;;9.60;5.68;;;;;;;;;;5044898;28;38564;-79
2021/08/11 11:59:07;;;;;;;6.25;5.60;;;;;;;;;;5045540;28;35543;-78
2021/08/11 12:01:38;;;;;;;9.30;5.97;;;;;;;;;;5044741;28;39318;-79
2021/08/11 12:04:04;;;;;;;9.98;5.68;;;;;;;;;;5037006;28;37623;-79
2021/08/11 12:06:35;;;;;;;6.63;5.13;;;;;;;;;;5027679;28;37849;-78
2021/08/11 12:09:02;;;;;;;8.73;5.47;;;;;;;;;;5045751;28;37785;-77
2021/08/11 12:11:28;;;;;;;8.18;5.65;;;;;;;;;;5045649;28;38791;-78
2021/08/11 12:13:55;;;;;;;12.50;6.05;;;;;;;;;;5046215;28;39724;-79
2021/08/11 12:16:22;;;;;;;7.82;5.60;;;;;;;;;;5026183;28;37972;-78
2021/08/11 12:18:49;;;;;;;9.07;5.18;;;;;;;;;;5027413;28;35669;-78
2021/08/11 12:21:17;;;;;;;9.05;5.55;;;;;;;;;;5034691;28;39778;-78
2021/08/11 12:23:43;;;;;;;8.98;4.85;;;;;;;;;;5045188;28;38739;-77
2021/08/11 12:26:14;;;;;;;9.05;4.72;;;;;;;;;;5027653;28;39223;-78
2021/08/11 12:29:00;;;;;;;4.47;3.65;;;;;;;;;;5027391;28;37076;-78
2021/08/11 12:31:27;;;;;;;6.75;4.63;;;;;;;;;;5025603;28;39934;-78
2021/08/11 12:33:55;;;;;;;8.35;4.82;;;;;;;;;;5045300;28;39897;-78
2021/08/11 12:36:22;;;;;;;8.43;4.10;;;;;;;;;;5044617;28;38562;-78
2021/08/11 12:38:58;;;;;;;9.18;5.05;;;;;;;;;;5026828;28;35853;-78
2021/08/11 12:41:25;;;;;;;12.88;8.73;;;;;;;;;;5026971;28;37513;-78
2021/08/11 12:43:53;;;;;;;10.93;7.65;;;;;;;;;;5027047;28;37535;-77
2021/08/11 12:46:38;;;;;;;9.98;7.18;;;;;;;;;;5026224;28;37624;-78
2021/08/11 12:49:14;;;;;;;8.45;6.93;;;;;;;;;;5044900;28;37035;-78
2021/08/11 12:51:40;;;;;;;9.35;6.68;;;;;;;;;;5044193;28;39156;-79
2021/08/11 12:54:07;;;;;;;9.40;6.35;;;;;;;;;;5047549;28;39881;-77
2021/08/11 12:56:52;;;;;;;8.20;5.93;;;;;;;;;;5047000;28;39626;-78
2021/08/11 12:59:19;;;;;;;7.45;5.30;;;;;;;;;;5052094;28;37162;-77
2021/08/11 13:01:46;;;;;;;7.60;4.60;;;;;;;;;;5051623;28;40098;-78
2021/08/11 13:04:16;;;;;;;9.55;6.45;;;;;;;;;;5034976;28;37840;-79
2021/08/11 13:06:46;;;;;;;8.23;6.05;;;;;;;;;;5033150;28;40326;-78
2021/08/11 13:09:30;;;;;;;13.00;6.82;;;;;;;;;;5052400;28;36566;-78
2021/08/11 13:12:00;;;;;;;12.57;7.18;;;;;;;;;;5050725;28;37763;-77
2021/08/11 13:14:59;;;;;;;10.32;6.22;;;;;;;;;;5071741;28;47359;-78
2021/08/11 13:17:30;;;;;;;10.68;6.50;;;;;;;;;;5024299;28;37211;-79
2021/08/11 13:20:29;;;;;;;9.70;7.20;;;;;;;;;;5050712;28;36947;-79
2021/08/11 13:22:57;;;;;;;7.97;5.20;;;;;;;;;;5007904;28;49333;-78
2021/08/11 13:25:24;;;;;;;10.57;6.25;;;;;;;;;;5032777;28;37929;-78
2021/08/11 13:27:51;;;;;;;7.70;5.45;;;;;;;;;;5051395;28;38877;-79
2021/08/11 13:30:18;;;;;;;9.02;4.88;;;;;;;;;;5050628;28;37628;-77
2021/08/11 13:32:45;;;;;;;8.13;5.53;;;;;;;;;;5052216;28;38938;-79
2021/08/11 13:35:11;;;;;;;10.65;5.53;;;;;;;;;;5031845;28;39577;-78
2021/08/11 13:37:38;;;;;;;12.20;6.10;;;;;;;;;;5034451;28;37555;-79
2021/08/11 13:40:06;;;;;;;11.88;6.97;;;;;;;;;;5051234;28;37613;-75
2021/08/11 13:42:33;;;;;;;9.23;6.10;;;;;;;;;;5033471;28;47053;-78
2021/08/11 13:44:59;;;;;;;10.75;5.10;;;;;;;;;;5052803;28;38943;-78
2021/08/11 13:47:25;;;;;;;10.32;5.38;;;;;;;;;;5049661;28;39600;-77
2021/08/11 13:49:52;;;;;;;8.98;6.28;;;;;;;;;;5033132;28;36180;-78
2021/08/11 13:52:19;;;;;;;10.05;5.50;;;;;;;;;;5033694;28;39059;-78
2021/08/11 13:54:46;;;;;;;7.95;5.05;;;;;;;;;;5033952;28;37652;-77
2021/08/11 13:57:12;;;;;;;10.18;5.80;;;;;;;;;;5052597;28;38336;-78
2021/08/11 13:59:39;;;;;;;8.68;4.97;;;;;;;;;;5033988;28;35745;-78
2021/08/11 14:02:06;;;;;;;8.60;4.78;;;;;;;;;;5058636;28;39763;-78
2021/08/11 14:04:32;;;;;;;8.88;4.88;;;;;;;;;;5034222;28;37822;-79
2021/08/11 14:07:02;;;;;;;9.23;5.65;;;;;;;;;;5033592;28;37441;-78
2021/08/11 14:09:29;;;;;;;8.63;5.82;;;;;;;;;;5044206;28;47525;-78
2021/08/11 14:11:55;;;;;;;12.02;7.00;;;;;;;;;;5030025;28;39267;-79
2021/08/11 14:14:22;;;;;;;8.77;5.30;;;;;;;;;;5030213;28;38871;-78
2021/08/11 14:16:48;;;;;;;6.93;4.40;;;;;;;;;;5028645;28;38351;-77
2021/08/11 14:19:15;;;;;;;8.15;5.38;;;;;;;;;;5041635;28;37114;-78
2021/08/11 14:21:41;;;;;;;8.80;5.05;;;;;;;;;;5047123;28;39539;-77
2021/08/11 14:24:08;;;;;;;7.85;4.53;;;;;;;;;;5029451;28;38049;-77
2021/08/11 14:26:34;;;;;;;7.55;4.53;;;;;;;;;;5047820;28;39639;-77
2021/08/11 14:29:00;;;;;;;7.43;4.53;;;;;;;;;;5030066;28;35697;-78
2021/08/11 14:31:28;;;;;;;7.10;4.07;;;;;;;;;;5046363;28;41122;-77